Time;durP1;ratioP1;P1;durP2;ratioP2;P2;SDS_P1;SDS_P2;PMS_P1;PMS_P2;Temp;Humidity;BMP_temperature;BMP_pressure;BME280_temperature;BME280_humidity;BME280_pressure;Samples;Min_cycle;Max_cycle;Signal;HPM_P1;HPM_P2
2022/03/29 00:01:00;;;;;;;0.10;0.10;;;12.00;96.40;;;;;;5038529;28;20421;-76
2022/03/29 00:03:26;;;;;;;0.32;0.32;;;12.00;96.30;;;;;;5035706;28;20025;-77
2022/03/29 00:05:52;;;;;;;1.13;1.02;;;12.00;96.60;;;;;;5036327;28;20022;-77
2022/03/29 00:08:18;;;;;;;4.00;1.05;;;12.00;96.20;;;;;;5037446;28;20026;-77
2022/03/29 00:10:45;;;;;;;0.80;0.80;;;12.00;96.00;;;;;;5035649;28;20100;-77
2022/03/29 00:13:11;;;;;;;0.10;0.10;;;12.00;96.00;;;;;;5035667;28;20381;-76
2022/03/29 00:15:37;;;;;;;2.25;1.35;;;12.00;96.30;;;;;;5035420;28;20496;-76
2022/03/29 00:18:03;;;;;;;1.55;1.10;;;12.00;96.30;;;;;;5035359;28;20025;-76
2022/03/29 00:20:29;;;;;;;0.55;0.55;;;12.00;96.60;;;;;;5035833;28;20070;-77
2022/03/29 00:22:55;;;;;;;0.32;0.15;;;12.10;96.70;;;;;;5035745;28;20021;-77
2022/03/29 00:25:20;;;;;;;0.55;0.55;;;12.10;96.80;;;;;;5035223;28;20021;-77
2022/03/29 00:27:48;;;;;;;0.60;0.60;;;12.20;96.90;;;;;;5034260;28;20096;-76
2022/03/29 00:30:16;;;;;;;1.55;1.02;;;12.20;96.80;;;;;;5035391;28;20512;-77
2022/03/29 00:32:43;;;;;;;1.17;0.75;;;12.20;96.80;;;;;;5035309;28;20025;-77
2022/03/29 00:35:09;;;;;;;1.92;0.63;;;12.20;96.90;;;;;;5035972;28;20030;-77
2022/03/29 00:37:37;;;;;;;0.98;0.65;;;12.10;97.20;;;;;;5044855;28;20107;-77
2022/03/29 00:40:04;;;;;;;10.95;1.00;;;12.10;97.30;;;;;;5055200;28;20035;-77
2022/03/29 00:42:31;;;;;;;0.40;0.30;;;12.00;97.50;;;;;;5054607;28;20021;-77
2022/03/29 00:44:57;;;;;;;0.73;0.63;;;12.00;97.60;;;;;;5055283;28;20056;-76
2022/03/29 00:47:23;;;;;;;4.22;1.17;;;11.90;97.90;;;;;;5054885;28;20104;-76
2022/03/29 00:49:49;;;;;;;2.85;1.00;;;11.90;97.80;;;;;;5054838;28;20025;-76
2022/03/29 00:52:15;;;;;;;0.90;0.90;;;11.80;98.10;;;;;;5054777;28;20108;-76
2022/03/29 00:54:41;;;;;;;1.55;0.10;;;11.80;98.50;;;;;;5054873;28;20037;-76
2022/03/29 00:57:07;;;;;;;0.93;0.52;;;11.80;98.60;;;;;;5055111;28;20396;-77
2022/03/29 00:59:33;;;;;;;0.57;0.52;;;11.70;98.80;;;;;;5049035;28;20392;-77
2022/03/29 01:01:58;;;;;;;1.13;0.80;;;11.70;98.90;;;;;;5034631;28;20027;-77
2022/03/29 01:04:25;;;;;;;0.20;0.20;;;11.70;99.10;;;;;;5034730;28;20029;-77
2022/03/29 01:06:53;;;;;;;0.80;0.80;;;11.60;99.40;;;;;;5035010;28;20025;-76
2022/03/29 01:09:19;;;;;;;1.17;0.85;;;11.60;99.50;;;;;;5034611;28;20107;-76
2022/03/29 01:11:45;;;;;;;3.97;1.25;;;11.60;99.50;;;;;;5034459;28;20022;-77
2022/03/29 01:14:11;;;;;;;0.20;0.20;;;11.50;99.90;;;;;;5034097;28;20370;-77
2022/03/29 01:19:22;;;;;;;1.35;0.90;;;11.40;99.90;;;;;;5034458;28;20037;-76
2022/03/29 01:21:58;;;;;;;0.47;0.47;;;11.30;99.90;;;;;;5034832;28;20500;-76
2022/03/29 01:24:25;;;;;;;0.35;0.30;;;11.30;99.90;;;;;;5034534;28;20396;-76
2022/03/29 01:26:52;;;;;;;1.17;0.65;;;11.20;99.90;;;;;;5033224;28;20113;-76
2022/03/29 01:29:21;;;;;;;3.45;1.63;;;11.20;99.90;;;;;;5033922;28;20033;-77
2022/03/29 01:31:49;;;;;;;0.22;0.22;;;11.10;99.90;;;;;;5034852;28;20022;-77
2022/03/29 01:34:17;;;;;;;2.10;1.08;;;11.10;99.90;;;;;;5034379;28;20365;-77
2022/03/29 01:36:42;;;;;;;0.65;0.55;;;11.00;99.90;;;;;;5036525;28;20041;-76
2022/03/29 01:39:08;;;;;;;0.20;0.20;;;11.00;99.90;;;;;;5054012;28;20040;-77
2022/03/29 01:41:34;;;;;;;0.77;0.77;;;11.10;99.90;;;;;;5054266;28;20025;-77
2022/03/29 01:44:00;;;;;;;0.15;0.15;;;11.10;99.90;;;;;;5054076;28;20043;-77
2022/03/29 01:46:26;;;;;;;2.58;1.33;;;11.10;99.90;;;;;;5053959;28;20025;-77
2022/03/29 01:48:52;;;;;;;0.30;0.30;;;11.10;99.90;;;;;;5053483;28;20060;-76
2022/03/29 01:51:18;;;;;;;5.40;1.85;;;11.20;99.90;;;;;;5053528;28;20068;-77
2022/03/29 01:53:46;;;;;;;0.45;0.45;;;11.20;99.90;;;;;;5598920;22;20414;-76
2022/03/29 01:56:11;;;;;;;1.55;0.98;;;11.10;99.90;;;;;;4987568;28;20058;-76
2022/03/29 01:58:37;;;;;;;0.20;0.20;;;11.00;99.90;;;;;;5000471;28;20054;-78
2022/03/29 02:01:03;;;;;;;0.77;0.77;;;10.90;99.90;;;;;;4976299;28;20027;-76
2022/03/29 02:03:29;;;;;;;0.45;0.45;;;10.80;99.90;;;;;;4955252;29;20055;-76
2022/03/29 02:05:55;;;;;;;2.05;1.42;;;10.70;99.90;;;;;;4955799;29;20062;-76
2022/03/29 02:08:20;;;;;;;1.60;1.50;;;10.70;99.90;;;;;;4954377;28;20031;-77
2022/03/29 02:10:46;;;;;;;4.13;2.03;;;10.70;99.90;;;;;;4955149;29;20023;-76
2022/03/29 02:13:12;;;;;;;0.00;0.00;;;10.60;99.90;;;;;;4955118;28;20102;-76
2022/03/29 02:15:39;;;;;;;0.25;0.10;;;10.70;99.90;;;;;;4955323;29;20423;-77
2022/03/29 02:18:05;;;;;;;7.07;1.25;;;10.70;99.90;;;;;;4954885;29;20514;-77
2022/03/29 02:20:31;;;;;;;4.38;1.80;;;10.70;99.90;;;;;;4954090;28;20031;-77
2022/03/29 02:23:02;;;;;;;1.55;0.55;;;10.60;99.90;;;;;;4954224;28;20032;-76
2022/03/29 02:25:28;;;;;;;0.43;0.38;;;10.80;99.90;;;;;;4955197;28;20398;-77
2022/03/29 02:27:53;;;;;;;0.45;0.35;;;10.80;99.90;;;;;;4954616;29;20032;-76
2022/03/29 02:30:19;;;;;;;0.35;0.35;;;10.80;99.90;;;;;;4954944;29;20078;-77
2022/03/29 02:32:45;;;;;;;4.43;2.03;;;10.90;99.90;;;;;;4953688;28;20035;-76
2022/03/29 02:35:11;;;;;;;2.03;1.27;;;10.90;99.90;;;;;;4956894;28;20527;-76
2022/03/29 02:37:37;;;;;;;0.40;0.40;;;11.00;99.90;;;;;;4974689;28;20030;-76
2022/03/29 02:40:05;;;;;;;15.57;1.85;;;11.00;99.90;;;;;;4982186;28;20034;-76
2022/03/29 02:42:32;;;;;;;1.05;0.28;;;11.00;99.90;;;;;;4974490;28;20038;-76
2022/03/29 02:44:57;;;;;;;0.73;0.73;;;11.00;99.90;;;;;;4974381;28;20030;-77
2022/03/29 02:47:23;;;;;;;0.50;0.50;;;11.00;99.90;;;;;;4973665;28;20051;-76
2022/03/29 02:49:49;;;;;;;3.25;2.05;;;11.00;99.90;;;;;;4973243;28;20127;-76
2022/03/29 02:52:14;;;;;;;0.63;0.63;;;10.90;99.90;;;;;;4974258;28;20034;-76
2022/03/29 02:54:41;;;;;;;0.43;0.43;;;10.90;99.90;;;;;;4974031;28;20047;-76
2022/03/29 02:57:07;;;;;;;0.55;0.55;;;10.90;99.90;;;;;;4974275;28;20110;-77
2022/03/29 02:59:33;;;;;;;17.60;2.35;;;10.90;99.90;;;;;;4973886;28;20117;-76
2022/03/29 03:01:58;;;;;;;1.77;0.85;;;10.90;99.90;;;;;;4974279;28;20015;-76
2022/03/29 03:04:24;;;;;;;0.65;0.65;;;10.90;99.90;;;;;;4972653;28;20025;-77
2022/03/29 03:06:50;;;;;;;2.00;1.17;;;11.00;99.90;;;;;;4980189;28;20520;-76
2022/03/29 03:09:15;;;;;;;1.23;0.68;;;11.00;99.90;;;;;;4980339;28;20035;-77
2022/03/29 03:11:41;;;;;;;1.27;1.00;;;11.00;99.90;;;;;;4980638;28;20122;-77
2022/03/29 03:14:07;;;;;;;0.63;0.63;;;11.00;99.90;;;;;;4982669;28;20034;-76
2022/03/29 03:16:33;;;;;;;0.52;0.52;;;11.00;99.90;;;;;;4988960;28;20038;-77
2022/03/29 03:18:58;;;;;;;1.15;1.05;;;11.00;99.90;;;;;;4979854;28;20023;-76
2022/03/29 03:21:24;;;;;;;39.25;3.42;;;11.00;99.90;;;;;;4980635;28;20042;-76
2022/03/29 03:23:50;;;;;;;1.83;1.02;;;11.00;99.90;;;;;;4979857;28;20038;-76
2022/03/29 03:26:15;;;;;;;0.10;0.10;;;11.00;99.90;;;;;;4980495;28;20038;-76
2022/03/29 03:28:41;;;;;;;4.68;1.02;;;11.00;99.90;;;;;;4979508;28;20107;-76
2022/03/29 03:31:07;;;;;;;24.70;2.55;;;11.00;99.90;;;;;;4980568;28;20031;-76
2022/03/29 03:33:33;;;;;;;1.85;1.33;;;11.00;99.90;;;;;;4979979;28;20019;-76
2022/03/29 03:35:59;;;;;;;7.03;1.02;;;11.00;99.90;;;;;;4980642;28;20105;-76
2022/03/29 03:38:24;;;;;;;2.95;1.15;;;11.00;99.90;;;;;;4980428;28;20030;-76
2022/03/29 03:40:50;;;;;;;0.88;0.80;;;11.00;99.90;;;;;;4980533;28;20077;-76
2022/03/29 03:43:16;;;;;;;0.08;0.08;;;11.00;99.90;;;;;;4979193;28;20118;-77
2022/03/29 03:45:41;;;;;;;0.82;0.70;;;10.90;99.90;;;;;;4980102;28;20035;-77
2022/03/29 03:48:07;;;;;;;0.43;0.43;;;10.90;99.90;;;;;;4980509;28;20023;-77
2022/03/29 03:50:33;;;;;;;2.05;1.90;;;10.90;99.90;;;;;;4980382;28;20150;-76
2022/03/29 03:53:01;;;;;;;1.75;0.95;;;10.90;99.90;;;;;;4979519;28;20105;-77
2022/03/29 03:55:27;;;;;;;50.10;3.35;;;10.80;99.90;;;;;;4979559;28;20663;-76
2022/03/29 03:57:53;;;;;;;2.03;1.38;;;10.90;99.90;;;;;;4979694;28;20101;-76
2022/03/29 04:00:21;;;;;;;3.95;0.77;;;10.90;99.90;;;;;;4972097;28;20126;-76
2022/03/29 04:02:49;;;;;;;0.13;0.13;;;10.90;99.90;;;;;;4960634;28;20020;-76
2022/03/29 04:05:15;;;;;;;0.35;0.35;;;10.80;99.90;;;;;;4961174;28;20544;-76
2022/03/29 04:07:41;;;;;;;0.88;0.85;;;10.80;99.90;;;;;;4960324;28;20019;-76
2022/03/29 04:10:07;;;;;;;0.00;0.00;;;10.90;99.90;;;;;;4960479;28;20031;-77
2022/03/29 04:12:34;;;;;;;0.40;0.40;;;10.90;99.90;;;;;;4959962;28;20031;-76
2022/03/29 04:15:00;;;;;;;0.90;0.68;;;10.80;99.90;;;;;;4960714;28;20078;-76
2022/03/29 04:17:25;;;;;;;0.77;0.75;;;10.90;99.90;;;;;;4957937;28;20027;-76
2022/03/29 04:19:51;;;;;;;0.95;0.95;;;10.90;99.90;;;;;;4955898;28;20135;-77
2022/03/29 04:22:18;;;;;;;26.73;1.80;;;10.90;99.90;;;;;;4972448;28;20019;-77
2022/03/29 04:24:45;;;;;;;0.45;0.32;;;10.90;99.90;;;;;;4957742;28;20015;-77
2022/03/29 04:27:10;;;;;;;0.57;0.57;;;10.90;99.90;;;;;;4957337;28;20019;-76
2022/03/29 04:29:36;;;;;;;9.43;2.17;;;10.80;99.90;;;;;;4956579;28;20042;-77
2022/03/29 04:32:02;;;;;;;1.38;1.10;;;10.80;99.90;;;;;;4956698;28;20550;-76
2022/03/29 04:34:28;;;;;;;0.60;0.60;;;10.70;99.90;;;;;;4957645;28;20035;-77
2022/03/29 04:36:53;;;;;;;7.07;2.42;;;10.70;99.90;;;;;;4970953;28;20042;-76
2022/03/29 04:39:19;;;;;;;6.47;2.63;;;10.70;99.90;;;;;;4975309;28;20050;-76
2022/03/29 04:41:45;;;;;;;1.65;1.23;;;10.70;99.90;;;;;;4976781;28;20023;-76
2022/03/29 04:44:10;;;;;;;2.45;2.25;;;10.70;99.90;;;;;;4976950;28;20042;-76
2022/03/29 04:46:36;;;;;;;0.63;0.63;;;10.70;99.90;;;;;;4976839;28;20035;-76
2022/03/29 04:49:01;;;;;;;0.85;0.85;;;10.70;99.90;;;;;;4976468;28;20030;-76
2022/03/29 04:51:27;;;;;;;0.20;0.20;;;10.70;99.90;;;;;;4976030;28;20034;-76
2022/03/29 04:53:53;;;;;;;2.83;1.77;;;10.70;99.90;;;;;;4976082;28;20047;-77
2022/03/29 04:56:18;;;;;;;1.23;1.13;;;10.60;99.90;;;;;;4976447;28;20062;-77
2022/03/29 04:58:44;;;;;;;0.65;0.65;;;10.70;99.90;;;;;;4962529;28;20271;-76
2022/03/29 05:01:10;;;;;;;0.93;0.88;;;10.70;99.90;;;;;;4965945;28;20442;-76
2022/03/29 05:03:35;;;;;;;0.77;0.30;;;10.60;99.90;;;;;;4972696;28;20023;-76
2022/03/29 05:06:01;;;;;;;1.90;1.10;;;10.60;99.90;;;;;;4975693;28;20050;-77
2022/03/29 05:08:27;;;;;;;6.03;2.28;;;10.60;99.90;;;;;;4974888;28;20059;-77
2022/03/29 05:10:52;;;;;;;0.43;0.40;;;10.60;99.90;;;;;;4975484;28;20081;-76
2022/03/29 05:13:18;;;;;;;0.05;0.05;;;10.60;99.90;;;;;;4982770;28;20038;-76
2022/03/29 05:15:45;;;;;;;0.32;0.32;;;10.60;99.90;;;;;;4990957;28;20089;-76
2022/03/29 05:18:10;;;;;;;0.30;0.30;;;10.60;99.90;;;;;;4974955;28;20030;-76
2022/03/29 05:20:36;;;;;;;0.43;0.43;;;10.50;99.90;;;;;;4974030;28;20035;-76
2022/03/29 05:23:06;;;;;;;0.15;0.15;;;10.50;99.90;;;;;;4975359;28;20438;-76
2022/03/29 05:25:33;;;;;;;0.47;0.47;;;10.50;99.90;;;;;;4975189;28;20019;-76
2022/03/29 05:27:59;;;;;;;1.02;1.02;;;10.40;99.90;;;;;;4974230;28;20031;-77
2022/03/29 05:30:25;;;;;;;0.43;0.43;;;10.40;99.90;;;;;;4974986;28;20022;-76
2022/03/29 05:32:57;;;;;;;3.28;1.00;;;10.40;99.90;;;;;;4975101;28;20035;-76
2022/03/29 05:35:29;;;;;;;0.60;0.60;;;10.40;99.90;;;;;;4974890;28;20057;-76
2022/03/29 05:37:56;;;;;;;0.52;0.52;;;10.40;99.90;;;;;;4971462;28;20035;-77
2022/03/29 05:40:22;;;;;;;1.15;1.05;;;10.40;99.90;;;;;;4973191;28;20093;-76
2022/03/29 05:42:48;;;;;;;1.50;0.50;;;10.40;99.90;;;;;;4971599;28;20039;-76
2022/03/29 05:45:14;;;;;;;2.03;1.27;;;10.40;99.90;;;;;;4972555;28;20025;-76
2022/03/29 05:50:27;;;;;;;0.85;0.80;;;10.40;99.90;;;;;;4974170;28;20030;-76
2022/03/29 05:52:54;;;;;;;1.23;1.13;;;10.50;99.90;;;;;;4973843;28;20027;-76
2022/03/29 05:55:20;;;;;;;6.60;2.47;;;10.50;99.90;;;;;;4974451;28;20088;-76
2022/03/29 05:57:49;;;;;;;11.82;2.53;;;10.50;99.90;;;;;;4974343;28;20035;-76
2022/03/29 06:00:16;;;;;;;2.58;0.70;;;10.50;99.90;;;;;;4972898;28;20027;-76
2022/03/29 06:02:41;;;;;;;1.77;1.15;;;10.50;99.90;;;;;;4970697;28;20022;-76
2022/03/29 06:05:09;;;;;;;0.88;0.52;;;10.50;99.90;;;;;;4973469;28;20039;-76
2022/03/29 06:07:35;;;;;;;2.00;0.82;;;10.50;99.90;;;;;;4972050;28;20022;-76
2022/03/29 06:10:02;;;;;;;0.57;0.57;;;10.60;99.90;;;;;;4972670;28;20026;-76
2022/03/29 06:12:28;;;;;;;8.95;1.98;;;10.60;99.90;;;;;;4973373;28;20042;-76
2022/03/29 06:14:54;;;;;;;2.55;1.17;;;10.70;99.90;;;;;;4972828;28;20031;-76
2022/03/29 06:17:19;;;;;;;6.40;0.82;;;10.70;99.90;;;;;;4972160;28;20023;-76
2022/03/29 06:19:45;;;;;;;3.30;1.13;;;10.80;99.90;;;;;;4972116;28;20107;-76
2022/03/29 06:22:11;;;;;;;2.58;0.75;;;10.80;99.90;;;;;;4973010;28;20438;-76
2022/03/29 06:24:37;;;;;;;35.83;3.53;;;10.80;99.90;;;;;;4973488;28;20370;-76
2022/03/29 06:27:03;;;;;;;1.33;1.23;;;10.80;99.90;;;;;;4972040;28;20030;-76
2022/03/29 06:29:29;;;;;;;1.00;0.90;;;10.90;99.90;;;;;;4969318;28;20043;-76
2022/03/29 06:31:55;;;;;;;0.65;0.65;;;10.90;99.90;;;;;;4972583;28;20058;-75
2022/03/29 06:34:21;;;;;;;1.00;0.98;;;11.00;99.90;;;;;;4972334;28;20046;-77
2022/03/29 06:36:47;;;;;;;2.97;2.33;;;11.10;99.90;;;;;;4970700;28;20025;-76
2022/03/29 06:39:13;;;;;;;4.28;2.30;;;11.20;99.90;;;;;;4968486;28;20039;-76
2022/03/29 06:41:40;;;;;;;7.25;3.00;;;11.20;99.90;;;;;;4969551;28;20015;-76
2022/03/29 06:44:08;;;;;;;3.00;2.05;;;11.20;99.90;;;;;;4971007;28;20030;-77
2022/03/29 06:46:39;;;;;;;1.92;1.75;;;11.30;99.90;;;;;;4970941;28;20022;-76
2022/03/29 06:49:06;;;;;;;1.83;1.63;;;11.30;99.90;;;;;;4972012;28;20027;-76
2022/03/29 06:51:32;;;;;;;3.10;1.83;;;11.30;99.90;;;;;;4971240;28;20510;-75
2022/03/29 06:53:59;;;;;;;0.90;0.70;;;11.30;99.90;;;;;;4971288;28;20181;-76
2022/03/29 06:56:26;;;;;;;26.20;4.28;;;11.30;99.90;;;;;;4970837;28;20470;-75
2022/03/29 06:58:52;;;;;;;6.03;1.75;;;11.20;99.90;;;;;;4968529;28;20034;-75
2022/03/29 07:01:18;;;;;;;0.65;0.65;;;11.30;99.90;;;;;;4972644;28;20030;-77
2022/03/29 07:03:43;;;;;;;1.95;0.95;;;11.40;99.90;;;;;;4970349;28;20436;-77
2022/03/29 07:06:09;;;;;;;1.90;1.75;;;11.50;99.90;;;;;;4971192;28;20030;-77
2022/03/29 07:08:35;;;;;;;0.68;0.68;;;11.50;99.90;;;;;;4970019;28;20027;-76
2022/03/29 07:11:16;;;;;;;3.10;2.17;;;11.60;99.90;;;;;;4970453;28;20031;-76
2022/03/29 07:13:44;;;;;;;0.55;0.55;;;11.50;99.90;;;;;;4969212;28;20544;-76
2022/03/29 07:16:10;;;;;;;0.85;0.85;;;11.50;99.90;;;;;;4970575;28;20030;-77
2022/03/29 07:18:36;;;;;;;2.80;1.60;;;11.50;99.90;;;;;;4969257;28;20035;-76
2022/03/29 07:21:02;;;;;;;0.50;0.50;;;11.50;99.90;;;;;;4969304;28;20035;-76
2022/03/29 07:23:29;;;;;;;1.10;1.02;;;11.50;99.90;;;;;;4970601;28;20517;-76
2022/03/29 07:25:56;;;;;;;3.65;2.08;;;11.50;99.90;;;;;;4986066;28;20031;-76
2022/03/29 07:28:23;;;;;;;1.23;1.23;;;11.50;99.90;;;;;;4969870;28;20033;-78
2022/03/29 07:30:49;;;;;;;14.55;1.33;;;11.40;99.90;;;;;;4969557;28;20034;-77
2022/03/29 07:33:17;;;;;;;0.70;0.70;;;11.40;99.90;;;;;;4970642;28;20038;-76
2022/03/29 07:35:44;;;;;;;1.20;0.68;;;11.40;99.90;;;;;;4970900;28;20031;-76
2022/03/29 07:38:10;;;;;;;1.38;1.27;;;11.40;99.90;;;;;;4969848;28;20027;-77
2022/03/29 07:40:38;;;;;;;2.45;1.70;;;11.40;99.90;;;;;;4969019;28;20062;-76
2022/03/29 07:43:05;;;;;;;1.05;1.05;;;11.40;99.90;;;;;;4971295;28;20426;-76
2022/03/29 07:45:30;;;;;;;0.93;0.85;;;11.40;99.90;;;;;;4970846;28;20031;-77
2022/03/29 07:47:56;;;;;;;10.20;3.05;;;11.40;99.90;;;;;;4971522;28;20501;-76
2022/03/29 07:50:26;;;;;;;1.20;1.00;;;11.40;99.90;;;;;;4971077;28;20787;-76
2022/03/29 07:52:54;;;;;;;0.13;0.13;;;11.30;99.90;;;;;;4972700;28;20042;-75
2022/03/29 07:55:19;;;;;;;0.10;0.10;;;11.30;99.90;;;;;;4972503;28;20060;-76
2022/03/29 07:57:45;;;;;;;1.02;0.93;;;11.30;99.90;;;;;;4974466;28;20042;-75
2022/03/29 08:00:31;;;;;;;4.57;0.77;;;11.30;99.90;;;;;;4973421;28;20517;-75
2022/03/29 08:03:14;;;;;;;1.38;1.25;;;11.30;99.90;;;;;;4973393;28;20106;-77
2022/03/29 08:05:43;;;;;;;1.45;0.68;;;11.40;99.90;;;;;;4974547;28;20026;-76
2022/03/29 08:08:11;;;;;;;21.50;1.80;;;11.40;99.90;;;;;;4967087;28;20039;-76
2022/03/29 08:10:37;;;;;;;1.90;1.27;;;11.50;99.90;;;;;;4976155;28;20069;-76
2022/03/29 08:13:07;;;;;;;2.60;1.45;;;11.60;99.90;;;;;;4974553;28;20113;-76
2022/03/29 08:15:34;;;;;;;2.40;1.27;;;11.70;99.90;;;;;;4974944;28;20030;-75
2022/03/29 08:18:00;;;;;;;0.47;0.47;;;11.80;99.90;;;;;;4973623;28;20081;-75
2022/03/29 08:20:26;;;;;;;1.20;1.10;;;11.90;99.90;;;;;;4974849;28;20386;-75
2022/03/29 08:22:56;;;;;;;2.05;1.63;;;12.10;99.90;;;;;;4973905;28;20027;-75
2022/03/29 08:25:21;;;;;;;1.30;0.85;;;12.30;99.90;;;;;;4974010;28;20019;-76
2022/03/29 08:27:49;;;;;;;2.92;1.35;;;12.50;99.90;;;;;;4970008;28;20037;-76
2022/03/29 08:30:15;;;;;;;21.35;3.80;;;12.60;99.90;;;;;;4969355;28;20513;-75
2022/03/29 08:32:42;;;;;;;2.45;1.33;;;12.50;99.90;;;;;;4973718;28;20089;-75
2022/03/29 08:35:09;;;;;;;2.63;0.93;;;12.50;99.90;;;;;;4973836;28;20078;-75
2022/03/29 08:37:36;;;;;;;2.40;0.38;;;12.70;99.90;;;;;;4972277;28;20043;-75
2022/03/29 08:40:06;;;;;;;0.43;0.43;;;12.70;99.90;;;;;;4973728;28;20105;-75
2022/03/29 08:42:32;;;;;;;0.85;0.57;;;12.80;99.90;;;;;;4973449;28;20035;-75
2022/03/29 08:44:59;;;;;;;2.22;1.88;;;12.90;99.90;;;;;;4972198;28;20453;-76
2022/03/29 08:47:25;;;;;;;5.57;2.15;;;13.10;99.90;;;;;;4970604;28;20493;-76
2022/03/29 08:49:52;;;;;;;2.95;1.30;;;13.30;99.90;;;;;;4969955;28;20105;-75
2022/03/29 08:52:20;;;;;;;0.65;0.63;;;13.70;99.90;;;;;;4968898;28;20045;-76
2022/03/29 08:54:46;;;;;;;14.10;0.88;;;13.80;99.90;;;;;;4972958;28;20097;-75
2022/03/29 08:57:12;;;;;;;1.35;1.25;;;14.00;99.90;;;;;;4970650;28;20024;-76
2022/03/29 08:59:40;;;;;;;1.35;1.10;;;14.30;99.90;;;;;;4970336;28;20037;-75
2022/03/29 09:02:10;;;;;;;2.33;1.58;;;15.00;99.90;;;;;;4976700;28;20030;-75
2022/03/29 09:04:36;;;;;;;0.35;0.30;;;15.50;99.90;;;;;;4963401;28;20070;-76
2022/03/29 09:07:02;;;;;;;6.45;1.83;;;17.50;99.90;;;;;;4971164;28;20058;-76
2022/03/29 09:09:36;;;;;;;7.00;2.92;;;18.30;99.90;;;;;;4972971;28;20031;-76
2022/03/29 09:12:12;;;;;;;0.57;0.57;;;17.80;99.80;;;;;;4972988;28;20023;-75
2022/03/29 09:15:02;;;;;;;2.40;1.13;;;17.10;99.90;;;;;;4972952;28;20031;-75
2022/03/29 09:17:35;;;;;;;77.95;4.55;;;16.70;99.90;;;;;;4975045;28;20039;-76
2022/03/29 09:20:03;;;;;;;1.73;1.13;;;16.40;99.90;;;;;;4973028;28;20039;-76
2022/03/29 09:22:49;;;;;;;4.03;1.75;;;16.20;99.90;;;;;;4973208;28;20029;-75
2022/03/29 09:25:33;;;;;;;0.38;0.38;;;16.40;99.90;;;;;;4971792;28;20121;-76
2022/03/29 09:28:12;;;;;;;4.80;0.80;;;16.90;99.90;;;;;;4973737;28;20382;-76
2022/03/29 09:30:40;;;;;;;17.05;1.30;;;17.10;99.90;;;;;;4972673;28;20758;-76
2022/03/29 09:33:20;;;;;;;0.82;0.68;;;16.70;99.90;;;;;;4971598;28;20462;-76
2022/03/29 09:36:05;;;;;;;9.13;0.93;;;17.30;99.90;;;;;;4973287;28;20105;-74
2022/03/29 09:38:39;;;;;;;19.63;3.15;;;18.70;98.00;;;;;;4971471;28;20081;-76
2022/03/29 09:41:18;;;;;;;2.75;2.13;;;19.00;97.30;;;;;;4976018;28;20085;-75
2022/03/29 09:43:44;;;;;;;5.72;2.30;;;18.90;97.00;;;;;;4976542;28;20049;-76
2022/03/29 09:46:10;;;;;;;9.75;2.30;;;18.40;97.10;;;;;;4968199;28;20454;-76
2022/03/29 09:48:37;;;;;;;9.13;2.63;;;17.80;98.40;;;;;;4972977;28;20023;-76
2022/03/29 09:51:14;;;;;;;2.15;1.45;;;17.00;98.60;;;;;;4974883;28;20391;-75
2022/03/29 09:53:51;;;;;;;1.85;1.17;;;16.90;99.80;;;;;;4975107;28;20046;-75
2022/03/29 09:56:20;;;;;;;1.20;1.10;;;16.70;99.50;;;;;;4974255;28;20047;-77
2022/03/29 09:58:46;;;;;;;0.35;0.20;;;16.60;99.90;;;;;;4975394;28;20058;-75
2022/03/29 10:01:25;;;;;;;5.03;1.58;;;16.80;99.60;;;;;;4978985;28;20035;-75
2022/03/29 10:03:53;;;;;;;5.88;2.10;;;17.10;99.30;;;;;;4973833;28;20501;-76
2022/03/29 10:06:21;;;;;;;0.88;0.88;;;17.60;98.10;;;;;;4969838;28;20117;-74
2022/03/29 10:11:34;;;;;;;2.33;1.45;;;18.00;96.20;;;;;;4972565;28;20089;-76
2022/03/29 10:14:02;;;;;;;3.45;1.77;;;18.50;96.30;;;;;;4971762;28;20063;-75
2022/03/29 10:16:28;;;;;;;0.90;0.63;;;19.10;94.50;;;;;;4967709;28;20415;-76
2022/03/29 10:18:55;;;;;;;8.02;2.28;;;19.20;94.10;;;;;;4972320;28;20039;-75
2022/03/29 10:21:20;;;;;;;5.57;2.72;;;19.50;93.40;;;;;;4976297;28;20068;-75
2022/03/29 10:23:51;;;;;;;4.18;1.85;;;19.80;93.40;;;;;;4976561;28;20489;-78
2022/03/29 10:26:19;;;;;;;54.70;3.42;;;19.50;93.30;;;;;;4977406;28;20375;-78
2022/03/29 10:28:46;;;;;;;3.67;1.50;;;19.20;93.00;;;;;;4972452;28;20065;-76
2022/03/29 10:31:31;;;;;;;12.38;1.42;;;18.10;94.70;;;;;;4962758;28;20169;-75
2022/03/29 10:34:14;;;;;;;5.18;1.67;;;17.70;95.80;;;;;;4962635;28;20081;-77
2022/03/29 10:37:18;;;;;;;3.53;1.85;;;17.80;96.70;;;;;;4976710;28;20062;-77
2022/03/29 10:39:54;;;;;;;0.70;0.70;;;17.70;96.50;;;;;;4944444;29;20035;-77
2022/03/29 10:42:36;;;;;;;2.45;1.65;;;17.60;96.80;;;;;;4944048;29;20150;-77
2022/03/29 10:45:14;;;;;;;9.05;2.40;;;17.60;97.10;;;;;;4944521;29;20034;-74
2022/03/29 10:47:41;;;;;;;2.95;2.17;;;17.50;97.20;;;;;;4941072;29;20532;-77
2022/03/29 10:50:10;;;;;;;2.22;1.67;;;17.40;97.30;;;;;;4950106;29;20114;-74
2022/03/29 10:52:44;;;;;;;13.98;3.28;;;17.30;97.50;;;;;;4946128;29;20043;-77
2022/03/29 10:55:25;;;;;;;4.68;0.75;;;17.50;97.60;;;;;;4945419;28;20058;-77
2022/03/29 10:58:14;;;;;;;3.08;1.40;;;17.40;97.20;;;;;;4938924;29;20538;-74
2022/03/29 11:00:48;;;;;;;4.07;2.47;;;17.30;98.40;;;;;;4948858;29;20195;-75
2022/03/29 11:03:20;;;;;;;0.38;0.32;;;17.00;99.30;;;;;;4939773;29;20043;-75
2022/03/29 11:06:06;;;;;;;1.23;1.13;;;17.10;99.90;;;;;;4923701;29;20028;-77
2022/03/29 11:08:32;;;;;;;4.03;1.65;;;17.50;99.80;;;;;;4942861;29;20031;-77
2022/03/29 11:11:01;;;;;;;5.97;0.73;;;17.10;99.90;;;;;;4941586;29;20071;-75
2022/03/29 11:13:38;;;;;;;0.90;0.90;;;16.90;99.90;;;;;;4962100;28;20501;-74
2022/03/29 11:16:25;;;;;;;1.95;1.55;;;17.00;99.80;;;;;;4971580;28;20559;-77
2022/03/29 11:18:52;;;;;;;10.27;2.35;;;17.10;99.70;;;;;;4968609;28;20023;-74
2022/03/29 11:21:35;;;;;;;4.90;1.30;;;16.60;99.40;;;;;;4964042;28;20137;-76
2022/03/29 11:24:03;;;;;;;3.67;1.88;;;16.70;98.10;;;;;;4970568;28;20029;-74
2022/03/29 11:26:29;;;;;;;14.50;2.35;;;17.00;97.80;;;;;;4971070;28;20031;-76
2022/03/29 11:28:57;;;;;;;1.05;0.52;;;16.90;97.10;;;;;;4972384;28;20505;-76
2022/03/29 11:31:31;;;;;;;5.50;1.58;;;17.10;99.00;;;;;;4972891;28;20030;-75
2022/03/29 11:33:57;;;;;;;9.52;1.13;;;17.20;99.80;;;;;;4974286;28;20397;-76
2022/03/29 11:36:22;;;;;;;1.33;1.05;;;17.50;99.90;;;;;;4976446;28;20027;-73
2022/03/29 11:38:49;;;;;;;0.85;0.57;;;17.40;99.90;;;;;;4973448;28;20434;-75
2022/03/29 11:41:20;;;;;;;11.18;2.65;;;17.10;99.90;;;;;;4978090;28;20034;-75
2022/03/29 11:43:51;;;;;;;2.35;1.50;;;16.90;99.90;;;;;;4973752;28;20030;-76
2022/03/29 11:46:17;;;;;;;4.55;2.10;;;17.00;99.90;;;;;;4973931;28;20460;-76
2022/03/29 11:48:48;;;;;;;0.40;0.40;;;17.00;99.90;;;;;;4975572;28;20372;-75
2022/03/29 11:51:15;;;;;;;0.75;0.75;;;16.70;99.90;;;;;;4973800;28;20372;-75
2022/03/29 11:53:42;;;;;;;0.57;0.47;;;16.40;99.90;;;;;;4977670;28;20050;-75
2022/03/29 11:56:10;;;;;;;0.63;0.63;;;16.20;99.90;;;;;;4978747;28;20030;-75
2022/03/29 11:58:44;;;;;;;7.18;0.43;;;15.80;99.90;;;;;;4980017;28;20039;-75
2022/03/29 12:01:09;;;;;;;2.95;1.38;;;15.40;99.90;;;;;;4974157;28;20534;-76
2022/03/29 12:03:40;;;;;;;1.00;0.55;;;15.40;99.90;;;;;;4976488;28;20033;-76
2022/03/29 12:06:15;;;;;;;0.60;0.47;;;15.70;99.90;;;;;;4973008;28;20050;-74
2022/03/29 12:09:03;;;;;;;6.38;3.85;;;15.80;99.90;;;;;;4978370;28;20506;-75
2022/03/29 12:11:35;;;;;;;0.75;0.75;;;15.60;99.90;;;;;;4977527;28;20034;-76
2022/03/29 12:14:11;;;;;;;2.85;1.98;;;15.40;99.90;;;;;;4971002;28;20402;-76
2022/03/29 12:17:04;;;;;;;1.75;1.50;;;15.60;99.90;;;;;;4977357;28;20160;-75
2022/03/29 12:19:32;;;;;;;0.68;0.68;;;15.50;99.90;;;;;;4976697;28;20137;-76
2022/03/29 12:22:01;;;;;;;2.03;1.75;;;15.80;99.90;;;;;;4976637;28;20061;-75
2022/03/29 12:24:32;;;;;;;4.93;1.23;;;15.90;99.90;;;;;;4973943;28;20085;-75
2022/03/29 12:27:04;;;;;;;0.77;0.77;;;15.90;99.90;;;;;;4980053;28;20371;-75
2022/03/29 12:29:30;;;;;;;0.80;0.30;;;16.00;99.90;;;;;;4970372;28;20462;-75
2022/03/29 12:31:56;;;;;;;1.13;0.90;;;15.80;99.90;;;;;;4972607;28;20074;-76
2022/03/29 12:34:28;;;;;;;6.55;2.55;;;16.20;99.90;;;;;;4974026;28;20034;-76
2022/03/29 12:36:56;;;;;;;3.90;1.17;;;16.60;99.90;;;;;;4988952;28;20030;-77
2022/03/29 12:39:23;;;;;;;2.72;1.27;;;17.20;99.90;;;;;;4968807;28;20517;-75
2022/03/29 12:41:48;;;;;;;0.90;0.75;;;17.30;99.90;;;;;;4974265;28;20037;-77
2022/03/29 12:44:46;;;;;;;2.08;1.88;;;17.20;99.90;;;;;;4974440;28;20034;-77
2022/03/29 12:47:13;;;;;;;0.68;0.25;;;16.70;99.90;;;;;;4971216;28;20039;-76
2022/03/29 12:49:41;;;;;;;2.13;1.30;;;16.60;99.90;;;;;;4973564;28;20402;-74
2022/03/29 12:52:10;;;;;;;0.93;0.90;;;16.80;99.90;;;;;;4981223;28;20034;-73
2022/03/29 12:54:35;;;;;;;0.85;0.85;;;16.80;99.90;;;;;;4979210;28;20510;-75
2022/03/29 12:57:03;;;;;;;1.40;1.25;;;17.00;99.90;;;;;;4993564;28;20041;-74
2022/03/29 12:59:42;;;;;;;2.33;1.70;;;17.00;99.90;;;;;;4979988;28;20031;-75